Home > Products > Valid Products > MTR

000
SAUS44 KLIX 231552
MTRBVE
METAR KBVE 231551Z AUTO 04009KT 10SM CLR 23/14 A3009 RMK AO2 SLP190
T02280144





000
SAUS44 KLIX 231452
MTRBVE
METAR KBVE 231451Z AUTO 04007KT 10SM CLR 23/14 A3008 RMK AO2 SLP186
T02280144 51011





000
SAUS44 KLIX 231452
MTRBVE
METAR KBVE 231451Z AUTO 04007KT 10SM CLR 23/14 A3008 RMK AO2 SLP186
T02280144 51011





000
SAUS44 KLIX 231352
MTRBVE
METAR KBVE 231351Z AUTO 05006KT 10SM CLR 22/15 A3008 RMK AO2 SLP185
T02220150





000
SAUS44 KLIX 231252
MTRBVE
METAR KBVE 231251Z AUTO 05006KT 10SM CLR 21/14 A3006 RMK AO2 SLP180
T02110144





000
SAUS44 KLIX 231152
MTRBVE
METAR KBVE 231151Z AUTO 05006KT 10SM CLR 21/14 A3005 RMK AO2 SLP175
T02060144 10222 20206 53008





000
SAUS44 KLIX 231052
MTRBVE
METAR KBVE 231051Z AUTO 05008KT 10SM CLR 21/13 A3004 RMK AO2 SLP171
T02060133





000
SAUS44 KLIX 230952
MTRBVE
METAR KBVE 230951Z AUTO 05009KT 10SM CLR 21/13 A3003 RMK AO2 SLP169
T02110133





000
SAUS44 KLIX 230952
MTRBVE
METAR KBVE 230951Z AUTO 05009KT 10SM CLR 21/13 A3003 RMK AO2 SLP169
T02110133





000
SAUS44 KLIX 230852
MTRBVE
METAR KBVE 230851Z AUTO 05008KT 10SM CLR 21/13 A3003 RMK AO2 SLP167
T02110128 56006





000
SAUS44 KLIX 230752
MTRBVE
METAR KBVE 230751Z AUTO 05008KT 10SM CLR 22/14 A3003 RMK AO2 SLP169
T02170139





000
SAUS44 KLIX 230752
MTRBVE
METAR KBVE 230751Z AUTO 05008KT 10SM CLR 22/14 A3003 RMK AO2 SLP169
T02170139





000
SAUS44 KLIX 230652
MTRBVE
METAR KBVE 230651Z AUTO 05010G15KT 10SM CLR 22/14 A3004 RMK AO2
SLP170 T02170139





000
SAUS44 KLIX 230552
MTRBVE
METAR KBVE 230551Z AUTO 04008G15KT 10SM CLR 22/14 A3004 RMK AO2
SLP173 T02220139 10228 20211 402500206 58006





000
SAUS44 KLIX 230552
MTRBVE
METAR KBVE 230551Z AUTO 04008G15KT 10SM CLR 22/14 A3004 RMK AO2
SLP173 T02220139 10228 20211 402500206 58006





000
SAUS44 KLIX 230452
MTRBVE
METAR KBVE 230451Z AUTO 04009G17KT 10SM CLR 22/14 A3005 RMK AO2
SLP175 T02220144





000
SAUS44 KLIX 230452
MTRBVE
METAR KBVE 230451Z AUTO 04009G17KT 10SM CLR 22/14 A3005 RMK AO2
SLP175 T02220144





000
SAUS44 KLIX 230352
MTRBVE
METAR KBVE 230351Z AUTO 02004KT 10SM CLR 22/17 A3006 RMK AO2 SLP178
T02170167





000
SAUS44 KLIX 230352
MTRBVE
METAR KBVE 230351Z AUTO 02004KT 10SM CLR 22/17 A3006 RMK AO2 SLP178
T02170167





000
SAUS44 KLIX 230252
MTRBVE
METAR KBVE 230251Z AUTO 01003KT 10SM CLR 21/17 A3006 RMK AO2 SLP179
T02110167 53009





000
SAUS44 KLIX 230152
MTRBVE
METAR KBVE 230151Z AUTO 04005KT 10SM CLR 22/16 A3005 RMK AO2 SLP176
T02220156





000
SAUS44 KLIX 230152
MTRBVE
METAR KBVE 230151Z AUTO 04005KT 10SM CLR 22/16 A3005 RMK AO2 SLP176
T02220156





000
SAUS44 KLIX 230052
MTRBVE
METAR KBVE 230051Z AUTO 05004KT 10SM CLR 22/15 A3004 RMK AO2 SLP173
T02220150





000
SAUS44 KLIX 230052
MTRBVE
METAR KBVE 230051Z AUTO 05004KT 10SM CLR 22/15 A3004 RMK AO2 SLP173
T02220150





000
SAUS44 KLIX 222352
MTRBVE
METAR KBVE 222351Z AUTO 06007KT 10SM CLR 22/14 A3003 RMK AO2 SLP170
T02220139 10250 20222 53005





000
SAUS44 KLIX 222352
MTRBVE
METAR KBVE 222351Z AUTO 06007KT 10SM CLR 22/14 A3003 RMK AO2 SLP170
T02220139 10250 20222 53005





000
SAUS44 KLIX 222252
MTRBVE
METAR KBVE 222251Z AUTO 04006KT 10SM CLR 23/14 A3002 RMK AO2 SLP166
T02330139





000
SAUS44 KLIX 222252
MTRBVE
METAR KBVE 222251Z AUTO 04006KT 10SM CLR 23/14 A3002 RMK AO2 SLP166
T02330139





000
SAUS44 KLIX 222152
MTRBVE
METAR KBVE 222151Z AUTO 04007KT 10SM CLR 24/15 A3002 RMK AO2 SLP164
T02390150





000
SAUS44 KLIX 222052
MTRBVE
METAR KBVE 222051Z AUTO 04008KT 10SM CLR 24/15 A3002 RMK AO2 SLP165
T02440150 56012





000
SAUS44 KLIX 221952
MTRBVE
METAR KBVE 221951Z AUTO 04008G16KT 10SM CLR 24/16 A3002 RMK AO2
SLP165 T02440156





000
SAUS44 KLIX 221852
MTRBVE
METAR KBVE 221851Z AUTO 04010G16KT 10SM CLR 25/16 A3003 RMK AO2
SLP168 T02500156





000
SAUS44 KLIX 221752
MTRBVE
METAR KBVE 221751Z AUTO 04009KT 10SM CLR 25/17 A3005 RMK AO2 SLP177
T02500167 10250 20222 58007





000
SAUS44 KLIX 221752
MTRBVE
METAR KBVE 221751Z AUTO 04009KT 10SM CLR 25/17 A3005 RMK AO2 SLP177
T02500167 10250 20222 58007





000
SAUS44 KLIX 221652
MTRBVE
METAR KBVE 221651Z AUTO 04008G15KT 10SM CLR 25/17 A3008 RMK AO2
SLP184 T02500172





000
SAUS44 KLIX 221652
MTRBVE
METAR KBVE 221651Z AUTO 04008G15KT 10SM CLR 25/17 A3008 RMK AO2
SLP184 T02500172





000
SAUS44 KLIX 221552
MTRBVE
METAR KBVE 221551Z AUTO 04008KT 10SM CLR 24/18 A3009 RMK AO2 SLP188
T02440178





000
SAUS44 KLIX 221452
MTRBVE
METAR KBVE 221451Z AUTO 05009KT 10SM CLR 24/18 A3008 RMK AO2 SLP184
T02390178 51017





000
SAUS44 KLIX 221352
MTRBVE
METAR KBVE 221351Z AUTO 05007KT 10SM CLR 23/18 A3006 RMK AO2 SLP180
T02330178





000
SAUS44 KLIX 221252
MTRBVE
METAR KBVE 221251Z AUTO 03009G15KT 10SM CLR 22/18 A3004 RMK AO2
SLP173 T02220178





000
SAUS44 KLIX 221152
MTRBVE
METAR KBVE 221151Z AUTO 04008KT 10SM CLR 23/16 A3003 RMK AO2 SLP167
T02280156 10228 20200 53010





000
SAUS44 KLIX 221052
MTRBVE
METAR KBVE 221051Z AUTO 04007KT 10SM CLR 22/17 A3002 RMK AO2 SLP164
T02220172





000
SAUS44 KLIX 220952
MTRBVE
METAR KBVE 220951Z AUTO 36004KT 10SM CLR 22/19 A3000 RMK AO2 SLP159
T02170189





000
SAUS44 KLIX 220952
MTRBVE
METAR KBVE 220951Z AUTO 36004KT 10SM CLR 22/19 A3000 RMK AO2 SLP159
T02170189





000
SAUS44 KLIX 220852
MTRBVE
METAR KBVE 220851Z AUTO VRB05KT 10SM CLR 21/18 A3000 RMK AO2 SLP157
T02110178 58006





000
SAUS44 KLIX 220752
MTRBVE
METAR KBVE 220751Z AUTO 36004KT 10SM CLR 21/17 A3000 RMK AO2 SLP159
T02110172





000
SAUS44 KLIX 220652
MTRBVE
METAR KBVE 220651Z AUTO 35003KT 10SM CLR 21/18 A3001 RMK AO2 SLP161
T02060178





000
SAUS44 KLIX 220552
MTRBVE
METAR KBVE 220551Z AUTO 35003KT 10SM CLR 20/18 A3001 RMK AO2 SLP163
T02000178 10222 20183 402500183 58003





000
SAUS44 KLIX 220552
MTRBVE
METAR KBVE 220551Z AUTO 35003KT 10SM CLR 20/18 A3001 RMK AO2 SLP163
T02000178 10222 20183 402500183 58003





000
SAUS44 KLIX 220452
MTRBVE
METAR KBVE 220451Z AUTO 00000KT 10SM CLR 21/17 A3002 RMK AO2 SLP164
T02060172





000
SAUS44 KLIX 220452
MTRBVE
METAR KBVE 220451Z AUTO 00000KT 10SM CLR 21/17 A3002 RMK AO2 SLP164
T02060172





000
SAUS44 KLIX 220352
MTRBVE
METAR KBVE 220351Z AUTO 02003KT 10SM CLR 21/17 A3002 RMK AO2 SLP167
T02060172





000
SAUS44 KLIX 220252
MTRBVE
METAR KBVE 220251Z AUTO 36003KT 10SM CLR 19/17 A3002 RMK AO2 SLP166
T01940167 51016





000
SAUS44 KLIX 220252
MTRBVE
METAR KBVE 220251Z AUTO 36003KT 10SM CLR 19/17 A3002 RMK AO2 SLP166
T01940167 51016





000
SAUS44 KLIX 220152
MTRBVE
METAR KBVE 220151Z AUTO 00000KT 10SM CLR 21/17 A3001 RMK AO2 SLP162
T02060167





000
SAUS44 KLIX 220053
MTRBVE
METAR KBVE 220051Z AUTO 12003KT 10SM CLR 21/16 A3000 RMK AO2 SLP157
T02110156





000
SAUS44 KLIX 212352
MTRBVE
METAR KBVE 212351Z AUTO 05003KT 10SM CLR 22/14 A2998 RMK AO2 SLP150
T02220139 10250 20222 55004





000
SAUS44 KLIX 212253
MTRBVE
METAR KBVE 212251Z AUTO 03005KT 10SM CLR 23/14 A2997 RMK AO2 SLP149
T02330144





000
SAUS44 KLIX 212253
MTRBVE
METAR KBVE 212251Z AUTO 03005KT 10SM CLR 23/14 A2997 RMK AO2 SLP149
T02330144





000
SAUS44 KLIX 212152
MTRBVE
METAR KBVE 212151Z AUTO 03007KT 350V050 10SM CLR 24/14 A2997 RMK AO2
SLP149 T02390144





000
SAUS44 KLIX 212152
MTRBVE
METAR KBVE 212151Z AUTO 03007KT 350V050 10SM CLR 24/14 A2997 RMK AO2
SLP149 T02390144





000
SAUS44 KLIX 212052
MTRBVE
METAR KBVE 212051Z AUTO 05006KT 10SM CLR 24/14 A2999 RMK AO2 SLP154
T02440144 56014





000
SAUS44 KLIX 211953
MTRBVE
METAR KBVE 211951Z AUTO 06008KT 10SM CLR 24/15 A2999 RMK AO2 SLP156
T02440150





000
SAUS44 KLIX 211852
MTRBVE
METAR KBVE 211851Z AUTO 06011KT 10SM CLR 24/15 A3000 RMK AO2 SLP160
T02440150





000
SAUS44 KLIX 211752
MTRBVE
METAR KBVE 211751Z AUTO 05009G15KT 10SM CLR 24/16 A3003 RMK AO2
SLP168 T02440161 10250 20217 58005





000
SAUS44 KLIX 211652
MTRBVE
METAR KBVE 211651Z AUTO 04010KT 10SM CLR 24/16 A3004 RMK AO2 SLP172
T02440156





000
SAUS44 KLIX 211652
MTRBVE
METAR KBVE 211651Z AUTO 04010KT 10SM CLR 24/16 A3004 RMK AO2 SLP172
T02440156





000
SAUS44 KLIX 211552
MTRBVE
METAR KBVE 211551Z AUTO 05008KT 10SM CLR 24/16 A3005 RMK AO2 SLP176
T02440156





000
SAUS44 KLIX 211552
MTRBVE
METAR KBVE 211551Z AUTO 05008KT 10SM CLR 24/16 A3005 RMK AO2 SLP176
T02440156





000
SAUS44 KLIX 211452
MTRBVE
METAR KBVE 211451Z AUTO 04008KT 10SM CLR 24/16 A3004 RMK AO2 SLP173
T02390161 51012





000
SAUS44 KLIX 211352
MTRBVE
METAR KBVE 211351Z AUTO 03007KT 350V050 10SM CLR 23/17 A3004 RMK AO2
SLP170 T02330172





000
SAUS44 KLIX 211252
MTRBVE
METAR KBVE 211251Z AUTO 04005KT 10SM CLR 22/16 A3002 RMK AO2 SLP166
T02220156





000
SAUS44 KLIX 211152
MTRBVE
METAR KBVE 211151Z AUTO 04004KT 10SM CLR 22/14 A3001 RMK AO2 SLP162
T02170144 10217 20211 53005





000
SAUS44 KLIX 211152
MTRBVE
METAR KBVE 211151Z AUTO 04004KT 10SM CLR 22/14 A3001 RMK AO2 SLP162
T02170144 10217 20211 53005





000
SAUS44 KLIX 211053
MTRBVE
METAR KBVE 211051Z AUTO 04005KT 10SM CLR 22/16 A3000 RMK AO2 SLP158
T02170156





000
SAUS44 KLIX 211053
MTRBVE
METAR KBVE 211051Z AUTO 04005KT 10SM CLR 22/16 A3000 RMK AO2 SLP158
T02170156





000
SAUS44 KLIX 210952
MTRBVE
METAR KBVE 210951Z AUTO 04003KT 10SM CLR 22/15 A3000 RMK AO2 SLP157
T02170150





000
SAUS44 KLIX 210852
MTRBVE
METAR KBVE 210851Z AUTO 04003KT 10SM CLR 22/17 A3000 RMK AO2 SLP157
T02170167 55003





000
SAUS44 KLIX 210752
MTRBVE
METAR KBVE 210751Z AUTO 03004KT 10SM CLR 22/17 A2999 RMK AO2 SLP156
T02170167





000
SAUS44 KLIX 210652
MTRBVE
METAR KBVE 210651Z AUTO 03003KT 10SM CLR 22/17 A3000 RMK AO2 SLP159
T02170167





000
SAUS44 KLIX 210552
MTRBVE
METAR KBVE 210551Z AUTO 03003KT 10SM CLR 22/16 A3000 RMK AO2 SLP159
T02170156 10222 20211 402670206 56004





000
SAUS44 KLIX 210452
MTRBVE
METAR KBVE 210451Z AUTO 02004KT 10SM CLR 22/17 A3001 RMK AO2 SLP161
T02170172





000
SAUS44 KLIX 210452
MTRBVE
METAR KBVE 210451Z AUTO 02004KT 10SM CLR 22/17 A3001 RMK AO2 SLP161
T02170172





000
SAUS44 KLIX 210352
MTRBVE
METAR KBVE 210351Z AUTO 00000KT 10SM CLR 21/18 A3001 RMK AO2 SLP162
T02110178





000
SAUS44 KLIX 210352
MTRBVE
METAR KBVE 210351Z AUTO 00000KT 10SM CLR 21/18 A3001 RMK AO2 SLP162
T02110178





000
SAUS44 KLIX 210252
MTRBVE
METAR KBVE 210251Z AUTO 04004KT 10SM CLR 22/18 A3001 RMK AO2 SLP163
T02170183 53006





000
SAUS44 KLIX 210252
MTRBVE
METAR KBVE 210251Z AUTO 04004KT 10SM CLR 22/18 A3001 RMK AO2 SLP163
T02170183 53006





000
SAUS44 KLIX 210152
MTRBVE
METAR KBVE 210151Z AUTO 04005KT 10SM CLR 22/18 A3001 RMK AO2 SLP162
T02220183





000
SAUS44 KLIX 210152
MTRBVE
METAR KBVE 210151Z AUTO 04005KT 10SM CLR 22/18 A3001 RMK AO2 SLP162
T02220183





000
SAUS44 KLIX 210052
MTRBVE
METAR KBVE 210051Z AUTO 03005KT 10SM CLR 22/18 A3000 RMK AO2 SLP157
T02220183





000
SAUS44 KLIX 202352
MTRBVE
METAR KBVE 202351Z AUTO 03005KT 10SM CLR 22/19 A3000 RMK AO2 SLP157
T02220189 10261 20222 53001





000
SAUS44 KLIX 202252
MTRBVE
METAR KBVE 202251Z AUTO 04006KT 10SM CLR 23/19 A2999 RMK AO2 SLP154
T02280189





000
SAUS44 KLIX 202252
MTRBVE
METAR KBVE 202251Z AUTO 04006KT 10SM CLR 23/19 A2999 RMK AO2 SLP154
T02280189





000
SAUS44 KLIX 202152
MTRBVE
METAR KBVE 202151Z AUTO 05006KT 10SM CLR 23/19 A2998 RMK AO2 SLP153
T02330189





000
SAUS44 KLIX 202152
MTRBVE
METAR KBVE 202151Z AUTO 05006KT 10SM CLR 23/19 A2998 RMK AO2 SLP153
T02330189





000
SAUS44 KLIX 202052
MTRBVE
METAR KBVE 202051Z AUTO 04008KT 10SM CLR 24/19 A2999 RMK AO2 SLP156
T02390189 56013





000
SAUS44 KLIX 201952
MTRBVE
METAR KBVE 201951Z AUTO 04007KT 10SM CLR 24/19 A3000 RMK AO2 SLP158
T02440194





000
SAUS44 KLIX 201855 COR
MTRBVE
METAR KBVE 201851Z AUTO 04008KT 10SM CLR 24/18 A3000 RMK AO2 SLP160
T02440183





000
SAUS44 KLIX 201853 COR
MTRBVE
METAR KBVE 201851Z AUTO 04008KT 10SM CLR 24/18 A3000 RMK AO2 SLP160
T02440183





000
SAUS44 KLIX 201852
MTRBVE
METAR KBVE 201851Z AUTO 04008KT 10SM CLR 24/18 A3000 RMK AO2 SLP160
T02440183





000
SAUS44 KLIX 201752
MTRBVE
METAR KBVE 201751Z AUTO VRB05KT 10SM CLR 26/17 A3003 RMK AO2 SLP168
T02610172 10267 20206 58011





000
SAUS44 KLIX 201652
MTRBVE
METAR KBVE 201651Z AUTO 05005KT 10SM CLR 26/17 A3005 RMK AO2 SLP175
T02610172





    US Dept of Commerce
    National Oceanic and Atmospheric Administration
    National Weather Service
    1325 East West Highway
    Silver Spring, MD 20910
    Page Author: NWS Internet Services Team
Disclaimer
Information Quality
Credits
Glossary
Privacy Policy
Freedom of Information Act (FOIA)
About Us
Career Opportunities